sensor_id;sensor_type;location;lat;lon;timestamp;temperature;humidity
8824;DHT22;4448;50.904;4.694;2022-09-27T00:02:00;10.20;99.90
8824;DHT22;4448;50.904;4.694;2022-09-27T00:04:25;10.10;99.90
8824;DHT22;4448;50.904;4.694;2022-09-27T00:06:52;10.10;99.90
8824;DHT22;4448;50.904;4.694;2022-09-27T00:09:18;10.00;99.90
8824;DHT22;4448;50.904;4.694;2022-09-27T00:11:45;10.00;99.90
8824;DHT22;4448;50.904;4.694;2022-09-27T00:14:16;10.10;99.90
8824;DHT22;4448;50.904;4.694;2022-09-27T00:16:42;10.10;99.90
8824;DHT22;4448;50.904;4.694;2022-09-27T00:19:13;10.00;99.90
8824;DHT22;4448;50.904;4.694;2022-09-27T00:21:39;10.10;99.90
8824;DHT22;4448;50.904;4.694;2022-09-27T00:24:05;10.10;99.90
8824;DHT22;4448;50.904;4.694;2022-09-27T00:26:31;10.00;99.90
8824;DHT22;4448;50.904;4.694;2022-09-27T00:28:57;10.10;99.90
8824;DHT22;4448;50.904;4.694;2022-09-27T00:31:28;10.10;99.90
8824;DHT22;4448;50.904;4.694;2022-09-27T00:33:55;10.10;99.90
8824;DHT22;4448;50.904;4.694;2022-09-27T00:36:22;10.10;99.90
8824;DHT22;4448;50.904;4.694;2022-09-27T00:38:48;10.10;99.90
8824;DHT22;4448;50.904;4.694;2022-09-27T00:41:37;10.00;99.90
8824;DHT22;4448;50.904;4.694;2022-09-27T00:50:23;10.10;99.90
8824;DHT22;4448;50.904;4.694;2022-09-27T00:55:29;10.10;99.90
8824;DHT22;4448;50.904;4.694;2022-09-27T00:57:57;10.10;99.90
8824;DHT22;4448;50.904;4.694;2022-09-27T01:00:23;10.10;99.90
8824;DHT22;4448;50.904;4.694;2022-09-27T01:02:52;10.10;99.90
8824;DHT22;4448;50.904;4.694;2022-09-27T01:05:22;10.10;99.90
8824;DHT22;4448;50.904;4.694;2022-09-27T01:07:49;10.10;99.90
8824;DHT22;4448;50.904;4.694;2022-09-27T01:10:15;10.10;99.90
8824;DHT22;4448;50.904;4.694;2022-09-27T01:12:57;10.10;99.90
8824;DHT22;4448;50.904;4.694;2022-09-27T01:24:16;9.90;99.90
8824;DHT22;4448;50.904;4.694;2022-09-27T01:32:38;10.00;99.90
8824;DHT22;4448;50.904;4.694;2022-09-27T01:35:28;10.00;99.90
8824;DHT22;4448;50.904;4.694;2022-09-27T01:38:13;9.90;99.90
8824;DHT22;4448;50.904;4.694;2022-09-27T01:41:05;9.80;99.90
8824;DHT22;4448;50.904;4.694;2022-09-27T01:43:37;9.80;99.90
8824;DHT22;4448;50.904;4.694;2022-09-27T01:46:17;9.80;99.90
8824;DHT22;4448;50.904;4.694;2022-09-27T01:48:46;9.80;99.90
8824;DHT22;4448;50.904;4.694;2022-09-27T01:51:21;9.70;99.90
8824;DHT22;4448;50.904;4.694;2022-09-27T01:54:00;9.70;99.90
8824;DHT22;4448;50.904;4.694;2022-09-27T01:56:44;9.70;99.90
8824;DHT22;4448;50.904;4.694;2022-09-27T01:59:34;9.70;99.90
8824;DHT22;4448;50.904;4.694;2022-09-27T02:02:07;9.70;99.90
8824;DHT22;4448;50.904;4.694;2022-09-27T02:04:36;9.60;99.90
8824;DHT22;4448;50.904;4.694;2022-09-27T02:07:09;9.70;99.90
8824;DHT22;4448;50.904;4.694;2022-09-27T02:09:58;9.60;99.90
8824;DHT22;4448;50.904;4.694;2022-09-27T02:12:31;9.60;99.90
8824;DHT22;4448;50.904;4.694;2022-09-27T02:15:08;9.60;99.90
8824;DHT22;4448;50.904;4.694;2022-09-27T02:18:00;9.60;99.90
8824;DHT22;4448;50.904;4.694;2022-09-27T02:20:34;9.50;99.90
8824;DHT22;4448;50.904;4.694;2022-09-27T02:25:57;9.50;99.90
8824;DHT22;4448;50.904;4.694;2022-09-27T02:28:32;9.50;99.90
8824;DHT22;4448;50.904;4.694;2022-09-27T02:30:59;9.60;99.90
8824;DHT22;4448;50.904;4.694;2022-09-27T02:33:31;9.50;99.90
8824;DHT22;4448;50.904;4.694;2022-09-27T02:35:59;9.60;99.90
8824;DHT22;4448;50.904;4.694;2022-09-27T02:38:25;9.70;99.90
8824;DHT22;4448;50.904;4.694;2022-09-27T02:40:51;9.70;99.90
8824;DHT22;4448;50.904;4.694;2022-09-27T02:43:18;9.70;99.90
8824;DHT22;4448;50.904;4.694;2022-09-27T02:51:25;9.70;99.90
8824;DHT22;4448;50.904;4.694;2022-09-27T02:54:18;9.50;99.90
8824;DHT22;4448;50.904;4.694;2022-09-27T03:05:28;9.50;99.90
8824;DHT22;4448;50.904;4.694;2022-09-27T03:07:55;9.50;99.90
8824;DHT22;4448;50.904;4.694;2022-09-27T03:10:24;9.40;99.90
8824;DHT22;4448;50.904;4.694;2022-09-27T03:12:51;9.40;99.90
8824;DHT22;4448;50.904;4.694;2022-09-27T03:15:17;9.40;99.90
8824;DHT22;4448;50.904;4.694;2022-09-27T03:17:42;9.40;99.90
8824;DHT22;4448;50.904;4.694;2022-09-27T03:20:08;9.40;99.90
8824;DHT22;4448;50.904;4.694;2022-09-27T03:22:37;9.60;99.90
8824;DHT22;4448;50.904;4.694;2022-09-27T03:25:06;9.40;99.90
8824;DHT22;4448;50.904;4.694;2022-09-27T03:27:33;9.40;99.90
8824;DHT22;4448;50.904;4.694;2022-09-27T03:29:59;9.40;99.90
8824;DHT22;4448;50.904;4.694;2022-09-27T03:32:25;9.40;99.90
8824;DHT22;4448;50.904;4.694;2022-09-27T03:34:52;9.40;99.90
8824;DHT22;4448;50.904;4.694;2022-09-27T03:37:21;9.40;99.90
8824;DHT22;4448;50.904;4.694;2022-09-27T03:39:47;9.50;99.90
8824;DHT22;4448;50.904;4.694;2022-09-27T03:42:12;9.40;99.90
8824;DHT22;4448;50.904;4.694;2022-09-27T03:44:38;9.40;99.90
8824;DHT22;4448;50.904;4.694;2022-09-27T03:47:03;9.40;99.90
8824;DHT22;4448;50.904;4.694;2022-09-27T03:49:30;9.30;99.90
8824;DHT22;4448;50.904;4.694;2022-09-27T03:51:57;9.40;99.90
8824;DHT22;4448;50.904;4.694;2022-09-27T03:54:22;9.40;99.90
8824;DHT22;4448;50.904;4.694;2022-09-27T03:56:50;9.40;99.90
8824;DHT22;4448;50.904;4.694;2022-09-27T03:59:19;9.30;99.90
8824;DHT22;4448;50.904;4.694;2022-09-27T04:01:46;9.40;99.90
8824;DHT22;4448;50.904;4.694;2022-09-27T04:04:15;9.30;99.90
8824;DHT22;4448;50.904;4.694;2022-09-27T04:06:41;9.20;99.90
8824;DHT22;4448;50.904;4.694;2022-09-27T04:09:06;9.20;99.90
8824;DHT22;4448;50.904;4.694;2022-09-27T04:11:33;9.10;99.90
8824;DHT22;4448;50.904;4.694;2022-09-27T04:13:59;9.20;99.90
8824;DHT22;4448;50.904;4.694;2022-09-27T04:16:24;9.10;99.90
8824;DHT22;4448;50.904;4.694;2022-09-27T04:18:51;9.10;99.90
8824;DHT22;4448;50.904;4.694;2022-09-27T04:21:17;9.10;99.90
8824;DHT22;4448;50.904;4.694;2022-09-27T04:23:43;9.10;99.90
8824;DHT22;4448;50.904;4.694;2022-09-27T04:26:08;9.10;99.90
8824;DHT22;4448;50.904;4.694;2022-09-27T04:28:34;9.00;99.90
8824;DHT22;4448;50.904;4.694;2022-09-27T04:30:59;9.10;99.90
8824;DHT22;4448;50.904;4.694;2022-09-27T04:33:25;9.00;99.90
8824;DHT22;4448;50.904;4.694;2022-09-27T04:35:51;9.00;99.90
8824;DHT22;4448;50.904;4.694;2022-09-27T04:38:36;9.00;99.90
8824;DHT22;4448;50.904;4.694;2022-09-27T04:41:02;8.90;99.90
8824;DHT22;4448;50.904;4.694;2022-09-27T04:43:28;8.90;99.90
8824;DHT22;4448;50.904;4.694;2022-09-27T04:45:53;8.90;99.90
8824;DHT22;4448;50.904;4.694;2022-09-27T04:48:19;8.90;99.90
8824;DHT22;4448;50.904;4.694;2022-09-27T04:50:45;8.90;99.90
8824;DHT22;4448;50.904;4.694;2022-09-27T04:53:14;8.90;99.90
8824;DHT22;4448;50.904;4.694;2022-09-27T04:55:46;8.90;99.90
8824;DHT22;4448;50.904;4.694;2022-09-27T04:58:13;8.90;99.90
8824;DHT22;4448;50.904;4.694;2022-09-27T05:00:39;8.90;99.90
8824;DHT22;4448;50.904;4.694;2022-09-27T05:03:07;9.00;99.90
8824;DHT22;4448;50.904;4.694;2022-09-27T05:05:33;8.90;99.90
8824;DHT22;4448;50.904;4.694;2022-09-27T05:08:00;8.90;99.90
8824;DHT22;4448;50.904;4.694;2022-09-27T05:10:31;9.00;99.90
8824;DHT22;4448;50.904;4.694;2022-09-27T05:12:57;9.00;99.90
8824;DHT22;4448;50.904;4.694;2022-09-27T05:15:22;9.00;99.90
8824;DHT22;4448;50.904;4.694;2022-09-27T05:17:50;9.00;99.90
8824;DHT22;4448;50.904;4.694;2022-09-27T05:20:16;9.10;99.90
8824;DHT22;4448;50.904;4.694;2022-09-27T05:22:42;9.10;99.90
8824;DHT22;4448;50.904;4.694;2022-09-27T05:25:08;9.10;99.90
8824;DHT22;4448;50.904;4.694;2022-09-27T05:27:34;9.00;99.90
8824;DHT22;4448;50.904;4.694;2022-09-27T05:29:59;9.00;99.90
8824;DHT22;4448;50.904;4.694;2022-09-27T05:32:27;9.10;99.90
8824;DHT22;4448;50.904;4.694;2022-09-27T05:34:52;9.00;99.90
8824;DHT22;4448;50.904;4.694;2022-09-27T05:37:18;9.00;99.90
8824;DHT22;4448;50.904;4.694;2022-09-27T05:39:44;9.00;99.90
8824;DHT22;4448;50.904;4.694;2022-09-27T05:42:11;9.00;99.90
8824;DHT22;4448;50.904;4.694;2022-09-27T05:44:38;9.00;99.90
8824;DHT22;4448;50.904;4.694;2022-09-27T05:47:04;9.10;99.90
8824;DHT22;4448;50.904;4.694;2022-09-27T05:49:30;9.10;99.90
8824;DHT22;4448;50.904;4.694;2022-09-27T05:51:57;9.00;99.90
8824;DHT22;4448;50.904;4.694;2022-09-27T05:54:22;9.10;99.90
8824;DHT22;4448;50.904;4.694;2022-09-27T05:56:48;9.10;99.90
8824;DHT22;4448;50.904;4.694;2022-09-27T05:59:14;9.20;99.90
8824;DHT22;4448;50.904;4.694;2022-09-27T06:01:40;9.20;99.90
8824;DHT22;4448;50.904;4.694;2022-09-27T06:04:05;9.20;99.90
8824;DHT22;4448;50.904;4.694;2022-09-27T06:06:35;9.20;99.90
8824;DHT22;4448;50.904;4.694;2022-09-27T06:09:01;9.20;99.90
8824;DHT22;4448;50.904;4.694;2022-09-27T06:11:27;9.20;99.90
8824;DHT22;4448;50.904;4.694;2022-09-27T06:13:52;9.20;99.90
8824;DHT22;4448;50.904;4.694;2022-09-27T06:16:18;9.30;99.90
8824;DHT22;4448;50.904;4.694;2022-09-27T06:18:44;9.30;99.90
8824;DHT22;4448;50.904;4.694;2022-09-27T06:21:09;9.30;99.90
8824;DHT22;4448;50.904;4.694;2022-09-27T06:23:36;9.30;99.90
8824;DHT22;4448;50.904;4.694;2022-09-27T06:26:05;9.20;99.90
8824;DHT22;4448;50.904;4.694;2022-09-27T06:28:32;9.30;99.90
8824;DHT22;4448;50.904;4.694;2022-09-27T06:31:00;9.30;99.90
8824;DHT22;4448;50.904;4.694;2022-09-27T06:33:26;9.30;99.90
8824;DHT22;4448;50.904;4.694;2022-09-27T06:35:52;9.30;99.90
8824;DHT22;4448;50.904;4.694;2022-09-27T06:38:18;9.40;99.90
8824;DHT22;4448;50.904;4.694;2022-09-27T06:40:46;9.30;99.90
8824;DHT22;4448;50.904;4.694;2022-09-27T06:43:16;9.40;99.90
8824;DHT22;4448;50.904;4.694;2022-09-27T06:45:42;9.40;99.90
8824;DHT22;4448;50.904;4.694;2022-09-27T06:48:11;9.50;99.90
8824;DHT22;4448;50.904;4.694;2022-09-27T06:50:39;9.50;99.90
8824;DHT22;4448;50.904;4.694;2022-09-27T06:53:07;9.60;99.90
8824;DHT22;4448;50.904;4.694;2022-09-27T06:55:33;9.60;99.90
8824;DHT22;4448;50.904;4.694;2022-09-27T06:58:02;9.50;99.90
8824;DHT22;4448;50.904;4.694;2022-09-27T07:00:48;9.50;99.90
8824;DHT22;4448;50.904;4.694;2022-09-27T07:03:14;9.50;99.90
8824;DHT22;4448;50.904;4.694;2022-09-27T07:05:40;9.50;99.90
8824;DHT22;4448;50.904;4.694;2022-09-27T07:08:10;9.50;99.90
8824;DHT22;4448;50.904;4.694;2022-09-27T07:10:39;9.50;99.90
8824;DHT22;4448;50.904;4.694;2022-09-27T07:13:06;9.50;99.90
8824;DHT22;4448;50.904;4.694;2022-09-27T07:15:36;10.60;99.90
8824;DHT22;4448;50.904;4.694;2022-09-27T07:18:04;10.40;99.90
8824;DHT22;4448;50.904;4.694;2022-09-27T07:20:30;10.10;99.90
8824;DHT22;4448;50.904;4.694;2022-09-27T07:22:57;9.90;99.90
8824;DHT22;4448;50.904;4.694;2022-09-27T07:25:23;9.90;99.90
8824;DHT22;4448;50.904;4.694;2022-09-27T07:27:50;10.00;99.90
8824;DHT22;4448;50.904;4.694;2022-09-27T07:30:17;10.00;99.90
8824;DHT22;4448;50.904;4.694;2022-09-27T07:32:43;10.90;99.90
8824;DHT22;4448;50.904;4.694;2022-09-27T07:35:10;11.00;99.90
8824;DHT22;4448;50.904;4.694;2022-09-27T07:37:36;10.70;99.90
8824;DHT22;4448;50.904;4.694;2022-09-27T07:40:04;10.50;99.90
8824;DHT22;4448;50.904;4.694;2022-09-27T07:42:34;10.40;99.90
8824;DHT22;4448;50.904;4.694;2022-09-27T07:45:04;10.30;99.90
8824;DHT22;4448;50.904;4.694;2022-09-27T07:47:31;10.30;99.90
8824;DHT22;4448;50.904;4.694;2022-09-27T07:49:57;10.40;99.90
8824;DHT22;4448;50.904;4.694;2022-09-27T07:52:23;10.40;99.90
8824;DHT22;4448;50.904;4.694;2022-09-27T07:54:49;10.60;99.90
8824;DHT22;4448;50.904;4.694;2022-09-27T07:57:15;11.40;99.90
8824;DHT22;4448;50.904;4.694;2022-09-27T07:59:41;12.30;99.90
8824;DHT22;4448;50.904;4.694;2022-09-27T08:02:13;12.60;99.90
8824;DHT22;4448;50.904;4.694;2022-09-27T08:04:40;12.50;99.90
8824;DHT22;4448;50.904;4.694;2022-09-27T08:07:08;12.40;99.90
8824;DHT22;4448;50.904;4.694;2022-09-27T08:09:35;12.20;99.90
8824;DHT22;4448;50.904;4.694;2022-09-27T08:12:01;12.00;99.90
8824;DHT22;4448;50.904;4.694;2022-09-27T08:14:27;12.00;99.90
8824;DHT22;4448;50.904;4.694;2022-09-27T08:16:54;11.70;99.90
8824;DHT22;4448;50.904;4.694;2022-09-27T08:19:20;11.70;99.90
8824;DHT22;4448;50.904;4.694;2022-09-27T08:21:46;11.60;99.90
8824;DHT22;4448;50.904;4.694;2022-09-27T08:24:12;11.50;99.90
8824;DHT22;4448;50.904;4.694;2022-09-27T08:26:38;11.50;99.90
8824;DHT22;4448;50.904;4.694;2022-09-27T08:29:04;11.40;99.90
8824;DHT22;4448;50.904;4.694;2022-09-27T08:31:31;11.30;99.90
8824;DHT22;4448;50.904;4.694;2022-09-27T08:33:57;11.20;99.90
8824;DHT22;4448;50.904;4.694;2022-09-27T08:36:22;11.20;99.90
8824;DHT22;4448;50.904;4.694;2022-09-27T08:38:51;11.20;99.90
8824;DHT22;4448;50.904;4.694;2022-09-27T08:44:08;11.20;99.90
8824;DHT22;4448;50.904;4.694;2022-09-27T08:47:01;11.30;99.90
8824;DHT22;4448;50.904;4.694;2022-09-27T08:49:51;11.30;99.90
8824;DHT22;4448;50.904;4.694;2022-09-27T08:52:26;11.30;99.90
8824;DHT22;4448;50.904;4.694;2022-09-27T08:54:55;11.30;99.90
8824;DHT22;4448;50.904;4.694;2022-09-27T08:57:23;11.30;99.90
8824;DHT22;4448;50.904;4.694;2022-09-27T09:00:00;11.20;99.90
8824;DHT22;4448;50.904;4.694;2022-09-27T09:02:26;11.30;99.90
8824;DHT22;4448;50.904;4.694;2022-09-27T09:04:59;11.30;99.90
8824;DHT22;4448;50.904;4.694;2022-09-27T09:10:40;11.30;99.90
8824;DHT22;4448;50.904;4.694;2022-09-27T09:14:02;11.20;99.90
8824;DHT22;4448;50.904;4.694;2022-09-27T09:30:09;10.80;99.90
8824;DHT22;4448;50.904;4.694;2022-09-27T09:32:56;10.70;99.90
8824;DHT22;4448;50.904;4.694;2022-09-27T09:35:40;10.70;99.90
8824;DHT22;4448;50.904;4.694;2022-09-27T09:38:15;10.70;99.90
8824;DHT22;4448;50.904;4.694;2022-09-27T09:40:48;10.70;99.90
8824;DHT22;4448;50.904;4.694;2022-09-27T09:46:00;10.50;99.90
8824;DHT22;4448;50.904;4.694;2022-09-27T09:50:59;10.30;99.90
8824;DHT22;4448;50.904;4.694;2022-09-27T10:01:29;10.10;99.90
8824;DHT22;4448;50.904;4.694;2022-09-27T10:03:57;10.10;99.90
8824;DHT22;4448;50.904;4.694;2022-09-27T10:06:24;10.10;99.90
8824;DHT22;4448;50.904;4.694;2022-09-27T10:08:51;10.10;99.90
8824;DHT22;4448;50.904;4.694;2022-09-27T10:11:39;10.10;99.90
8824;DHT22;4448;50.904;4.694;2022-09-27T10:14:12;10.30;99.90
8824;DHT22;4448;50.904;4.694;2022-09-27T10:16:40;10.30;99.90
8824;DHT22;4448;50.904;4.694;2022-09-27T10:19:08;10.50;99.90
8824;DHT22;4448;50.904;4.694;2022-09-27T10:21:38;10.60;99.90
8824;DHT22;4448;50.904;4.694;2022-09-27T10:24:11;10.80;99.90
8824;DHT22;4448;50.904;4.694;2022-09-27T10:26:39;10.80;99.90
8824;DHT22;4448;50.904;4.694;2022-09-27T10:29:33;11.00;99.90
8824;DHT22;4448;50.904;4.694;2022-09-27T10:32:01;11.20;99.90
8824;DHT22;4448;50.904;4.694;2022-09-27T10:34:40;11.30;99.90
8824;DHT22;4448;50.904;4.694;2022-09-27T10:39:38;11.50;99.90
8824;DHT22;4448;50.904;4.694;2022-09-27T10:42:30;11.60;99.90
8824;DHT22;4448;50.904;4.694;2022-09-27T10:44:57;11.60;99.90
8824;DHT22;4448;50.904;4.694;2022-09-27T10:47:23;11.70;99.90
8824;DHT22;4448;50.904;4.694;2022-09-27T10:49:51;11.80;99.90
8824;DHT22;4448;50.904;4.694;2022-09-27T10:52:22;12.00;99.90
8824;DHT22;4448;50.904;4.694;2022-09-27T10:54:56;12.10;99.90
8824;DHT22;4448;50.904;4.694;2022-09-27T10:57:25;12.40;99.90
8824;DHT22;4448;50.904;4.694;2022-09-27T11:00:02;12.70;99.90
8824;DHT22;4448;50.904;4.694;2022-09-27T11:02:31;12.90;99.90
8824;DHT22;4448;50.904;4.694;2022-09-27T11:07:53;13.90;99.90
8824;DHT22;4448;50.904;4.694;2022-09-27T11:10:27;14.30;99.90
8824;DHT22;4448;50.904;4.694;2022-09-27T11:13:06;14.50;99.90
8824;DHT22;4448;50.904;4.694;2022-09-27T11:29:42;15.20;99.90
8824;DHT22;4448;50.904;4.694;2022-09-27T11:32:36;14.40;99.90
8824;DHT22;4448;50.904;4.694;2022-09-27T11:38:16;13.70;99.90
8824;DHT22;4448;50.904;4.694;2022-09-27T11:41:04;14.40;99.90
8824;DHT22;4448;50.904;4.694;2022-09-27T11:58:11;11.30;99.90
8824;DHT22;4448;50.904;4.694;2022-09-27T12:06:16;11.20;99.90
8824;DHT22;4448;50.904;4.694;2022-09-27T12:08:50;11.40;99.90
8824;DHT22;4448;50.904;4.694;2022-09-27T12:14:00;11.90;99.90
8824;DHT22;4448;50.904;4.694;2022-09-27T12:16:29;12.30;99.90
8824;DHT22;4448;50.904;4.694;2022-09-27T12:18:58;12.50;99.90
8824;DHT22;4448;50.904;4.694;2022-09-27T12:21:26;12.90;99.90
8824;DHT22;4448;50.904;4.694;2022-09-27T12:23:55;13.20;99.90
8824;DHT22;4448;50.904;4.694;2022-09-27T12:29:02;15.30;99.90
8824;DHT22;4448;50.904;4.694;2022-09-27T12:31:35;15.40;99.90
8824;DHT22;4448;50.904;4.694;2022-09-27T12:34:16;15.10;99.90
8824;DHT22;4448;50.904;4.694;2022-09-27T12:36:50;14.80;99.90
8824;DHT22;4448;50.904;4.694;2022-09-27T12:39:24;14.80;99.90
8824;DHT22;4448;50.904;4.694;2022-09-27T12:42:00;14.70;99.90
8824;DHT22;4448;50.904;4.694;2022-09-27T12:44:37;14.80;99.90
8824;DHT22;4448;50.904;4.694;2022-09-27T12:53:23;16.10;99.90
8824;DHT22;4448;50.904;4.694;2022-09-27T12:56:07;16.00;99.90
8824;DHT22;4448;50.904;4.694;2022-09-27T13:12:24;17.60;99.90
8824;DHT22;4448;50.904;4.694;2022-09-27T13:15:01;17.90;99.90
8824;DHT22;4448;50.904;4.694;2022-09-27T13:17:47;17.40;99.90
8824;DHT22;4448;50.904;4.694;2022-09-27T13:23:00;16.50;99.90
8824;DHT22;4448;50.904;4.694;2022-09-27T13:25:55;15.80;99.90
8824;DHT22;4448;50.904;4.694;2022-09-27T13:31:04;14.50;99.90
8824;DHT22;4448;50.904;4.694;2022-09-27T13:33:51;13.80;99.90
8824;DHT22;4448;50.904;4.694;2022-09-27T13:39:02;13.00;99.90
8824;DHT22;4448;50.904;4.694;2022-09-27T13:49:25;12.60;99.90
8824;DHT22;4448;50.904;4.694;2022-09-27T13:52:04;12.70;99.90
8824;DHT22;4448;50.904;4.694;2022-09-27T14:00:24;13.80;99.90
8824;DHT22;4448;50.904;4.694;2022-09-27T14:03:01;13.90;99.90
8824;DHT22;4448;50.904;4.694;2022-09-27T14:05:47;13.90;99.90
8824;DHT22;4448;50.904;4.694;2022-09-27T14:08:34;13.60;99.90
8824;DHT22;4448;50.904;4.694;2022-09-27T14:11:03;13.70;99.90
8824;DHT22;4448;50.904;4.694;2022-09-27T14:13:37;13.70;99.90
8824;DHT22;4448;50.904;4.694;2022-09-27T14:16:04;13.90;99.90
8824;DHT22;4448;50.904;4.694;2022-09-27T14:18:31;14.10;99.90
8824;DHT22;4448;50.904;4.694;2022-09-27T14:26:48;14.50;99.90
8824;DHT22;4448;50.904;4.694;2022-09-27T14:29:20;14.60;99.90
8824;DHT22;4448;50.904;4.694;2022-09-27T14:32:00;14.60;99.90
8824;DHT22;4448;50.904;4.694;2022-09-27T14:34:27;14.60;99.90
8824;DHT22;4448;50.904;4.694;2022-09-27T14:36:53;14.50;99.90
8824;DHT22;4448;50.904;4.694;2022-09-27T14:39:38;14.50;99.90
8824;DHT22;4448;50.904;4.694;2022-09-27T14:42:20;14.20;99.90
8824;DHT22;4448;50.904;4.694;2022-09-27T14:44:47;14.10;99.90
8824;DHT22;4448;50.904;4.694;2022-09-27T14:47:22;14.30;99.90
8824;DHT22;4448;50.904;4.694;2022-09-27T14:49:57;14.40;99.90
8824;DHT22;4448;50.904;4.694;2022-09-27T14:52:33;14.50;99.90
8824;DHT22;4448;50.904;4.694;2022-09-27T14:57:38;14.50;99.90
8824;DHT22;4448;50.904;4.694;2022-09-27T15:00:30;14.40;99.90
8824;DHT22;4448;50.904;4.694;2022-09-27T15:02:59;14.30;99.90
8824;DHT22;4448;50.904;4.694;2022-09-27T15:05:28;14.20;99.90
8824;DHT22;4448;50.904;4.694;2022-09-27T15:07:55;14.10;99.90
8824;DHT22;4448;50.904;4.694;2022-09-27T15:10:28;13.90;99.90
8824;DHT22;4448;50.904;4.694;2022-09-27T15:12:55;13.80;99.90
8824;DHT22;4448;50.904;4.694;2022-09-27T15:15:30;13.60;99.90
8824;DHT22;4448;50.904;4.694;2022-09-27T15:17:58;13.60;99.90
8824;DHT22;4448;50.904;4.694;2022-09-27T15:20:29;13.60;99.90
8824;DHT22;4448;50.904;4.694;2022-09-27T15:22:58;13.50;99.90
8824;DHT22;4448;50.904;4.694;2022-09-27T15:25:57;13.30;99.90
8824;DHT22;4448;50.904;4.694;2022-09-27T15:28:23;13.00;99.90
8824;DHT22;4448;50.904;4.694;2022-09-27T15:30:56;12.50;99.90
8824;DHT22;4448;50.904;4.694;2022-09-27T15:33:27;12.10;99.90
8824;DHT22;4448;50.904;4.694;2022-09-27T15:35:58;11.70;99.90
8824;DHT22;4448;50.904;4.694;2022-09-27T15:38:38;11.60;99.90
8824;DHT22;4448;50.904;4.694;2022-09-27T15:41:18;11.50;99.90
8824;DHT22;4448;50.904;4.694;2022-09-27T15:43:49;11.50;99.90
8824;DHT22;4448;50.904;4.694;2022-09-27T15:51:43;11.50;99.90
8824;DHT22;4448;50.904;4.694;2022-09-27T15:54:09;11.60;99.90
8824;DHT22;4448;50.904;4.694;2022-09-27T15:56:35;11.80;99.90
8824;DHT22;4448;50.904;4.694;2022-09-27T15:59:02;11.90;99.90
8824;DHT22;4448;50.904;4.694;2022-09-27T16:01:27;12.10;99.90
8824;DHT22;4448;50.904;4.694;2022-09-27T16:03:53;12.10;99.90
8824;DHT22;4448;50.904;4.694;2022-09-27T16:06:20;12.00;99.90
8824;DHT22;4448;50.904;4.694;2022-09-27T16:08:50;12.00;99.90
8824;DHT22;4448;50.904;4.694;2022-09-27T16:11:15;11.90;99.90
8824;DHT22;4448;50.904;4.694;2022-09-27T16:13:42;12.30;99.90
8824;DHT22;4448;50.904;4.694;2022-09-27T16:16:15;12.60;99.90
8824;DHT22;4448;50.904;4.694;2022-09-27T16:18:43;12.60;99.90
8824;DHT22;4448;50.904;4.694;2022-09-27T16:21:09;12.50;99.90
8824;DHT22;4448;50.904;4.694;2022-09-27T16:23:35;12.50;99.90
8824;DHT22;4448;50.904;4.694;2022-09-27T16:26:00;12.60;99.90
8824;DHT22;4448;50.904;4.694;2022-09-27T16:28:26;12.60;99.90
8824;DHT22;4448;50.904;4.694;2022-09-27T16:30:53;12.70;99.90
8824;DHT22;4448;50.904;4.694;2022-09-27T16:33:19;13.00;99.90
8824;DHT22;4448;50.904;4.694;2022-09-27T16:35:44;13.00;99.90
8824;DHT22;4448;50.904;4.694;2022-09-27T16:38:10;13.10;99.90
8824;DHT22;4448;50.904;4.694;2022-09-27T16:40:36;12.90;99.90
8824;DHT22;4448;50.904;4.694;2022-09-27T16:43:02;12.70;99.90
8824;DHT22;4448;50.904;4.694;2022-09-27T16:45:32;12.50;99.90
8824;DHT22;4448;50.904;4.694;2022-09-27T16:48:00;12.40;99.90
8824;DHT22;4448;50.904;4.694;2022-09-27T16:50:26;12.20;99.90
8824;DHT22;4448;50.904;4.694;2022-09-27T16:53:12;12.10;99.90
8824;DHT22;4448;50.904;4.694;2022-09-27T16:55:40;12.10;99.90
8824;DHT22;4448;50.904;4.694;2022-09-27T16:58:06;12.10;99.90
8824;DHT22;4448;50.904;4.694;2022-09-27T17:00:33;12.00;99.90
8824;DHT22;4448;50.904;4.694;2022-09-27T17:03:02;11.90;99.90
8824;DHT22;4448;50.904;4.694;2022-09-27T17:05:28;11.80;99.90
8824;DHT22;4448;50.904;4.694;2022-09-27T17:07:54;11.80;99.90
8824;DHT22;4448;50.904;4.694;2022-09-27T17:10:20;11.80;99.90
8824;DHT22;4448;50.904;4.694;2022-09-27T17:12:48;11.80;99.90
8824;DHT22;4448;50.904;4.694;2022-09-27T17:15:15;11.70;99.90
8824;DHT22;4448;50.904;4.694;2022-09-27T17:17:41;11.60;99.90
8824;DHT22;4448;50.904;4.694;2022-09-27T17:20:09;11.60;99.90
8824;DHT22;4448;50.904;4.694;2022-09-27T17:22:35;11.50;99.90
8824;DHT22;4448;50.904;4.694;2022-09-27T17:25:00;11.50;99.90
8824;DHT22;4448;50.904;4.694;2022-09-27T17:27:27;11.50;99.90
8824;DHT22;4448;50.904;4.694;2022-09-27T17:29:57;11.50;99.90
8824;DHT22;4448;50.904;4.694;2022-09-27T17:32:23;11.50;99.90
8824;DHT22;4448;50.904;4.694;2022-09-27T17:34:50;11.40;99.90
8824;DHT22;4448;50.904;4.694;2022-09-27T17:37:19;11.40;99.90
8824;DHT22;4448;50.904;4.694;2022-09-27T17:39:51;11.40;99.90
8824;DHT22;4448;50.904;4.694;2022-09-27T17:42:17;11.40;99.90
8824;DHT22;4448;50.904;4.694;2022-09-27T17:44:43;11.40;99.90
8824;DHT22;4448;50.904;4.694;2022-09-27T17:47:09;11.40;99.90
8824;DHT22;4448;50.904;4.694;2022-09-27T17:49:53;11.40;99.90
8824;DHT22;4448;50.904;4.694;2022-09-27T17:52:37;11.40;99.90
8824;DHT22;4448;50.904;4.694;2022-09-27T17:55:04;11.30;99.90
8824;DHT22;4448;50.904;4.694;2022-09-27T17:57:30;11.30;99.90
8824;DHT22;4448;50.904;4.694;2022-09-27T17:59:57;11.10;99.90
8824;DHT22;4448;50.904;4.694;2022-09-27T18:02:23;11.00;99.90
8824;DHT22;4448;50.904;4.694;2022-09-27T18:04:48;10.90;99.90
8824;DHT22;4448;50.904;4.694;2022-09-27T18:07:14;10.70;99.90
8824;DHT22;4448;50.904;4.694;2022-09-27T18:09:40;10.50;99.90
8824;DHT22;4448;50.904;4.694;2022-09-27T18:12:06;10.40;99.90
8824;DHT22;4448;50.904;4.694;2022-09-27T18:14:31;10.30;99.90
8824;DHT22;4448;50.904;4.694;2022-09-27T18:16:59;10.10;99.90
8824;DHT22;4448;50.904;4.694;2022-09-27T18:19:26;10.00;99.90
8824;DHT22;4448;50.904;4.694;2022-09-27T18:21:52;10.00;99.90
8824;DHT22;4448;50.904;4.694;2022-09-27T18:24:18;9.90;99.90
8824;DHT22;4448;50.904;4.694;2022-09-27T18:26:44;10.00;99.90
8824;DHT22;4448;50.904;4.694;2022-09-27T18:29:12;10.10;99.90
8824;DHT22;4448;50.904;4.694;2022-09-27T18:31:39;10.00;99.90
8824;DHT22;4448;50.904;4.694;2022-09-27T18:34:05;9.90;99.90
8824;DHT22;4448;50.904;4.694;2022-09-27T18:36:31;9.90;99.90
8824;DHT22;4448;50.904;4.694;2022-09-27T18:38:59;9.90;99.90
8824;DHT22;4448;50.904;4.694;2022-09-27T18:41:27;9.90;99.90
8824;DHT22;4448;50.904;4.694;2022-09-27T18:43:55;9.90;99.90
8824;DHT22;4448;50.904;4.694;2022-09-27T18:46:24;9.90;99.90
8824;DHT22;4448;50.904;4.694;2022-09-27T18:48:51;10.00;99.90
8824;DHT22;4448;50.904;4.694;2022-09-27T18:51:20;9.80;99.90
8824;DHT22;4448;50.904;4.694;2022-09-27T18:53:46;9.70;99.90
8824;DHT22;4448;50.904;4.694;2022-09-27T18:56:15;9.60;99.90
8824;DHT22;4448;50.904;4.694;2022-09-27T18:58:42;9.70;99.90
8824;DHT22;4448;50.904;4.694;2022-09-27T19:01:14;9.50;99.90
8824;DHT22;4448;50.904;4.694;2022-09-27T19:03:42;9.50;99.90
8824;DHT22;4448;50.904;4.694;2022-09-27T19:06:23;9.50;99.90
8824;DHT22;4448;50.904;4.694;2022-09-27T19:08:53;9.50;99.90
8824;DHT22;4448;50.904;4.694;2022-09-27T19:11:20;9.50;99.90
8824;DHT22;4448;50.904;4.694;2022-09-27T19:13:50;9.50;99.90
8824;DHT22;4448;50.904;4.694;2022-09-27T19:16:16;9.50;99.90
8824;DHT22;4448;50.904;4.694;2022-09-27T19:18:42;9.50;99.90
8824;DHT22;4448;50.904;4.694;2022-09-27T19:21:14;9.50;99.90
8824;DHT22;4448;50.904;4.694;2022-09-27T19:23:40;9.50;99.90